地図

経路データ

SID SEASON NUMBER BASIN SUBBASIN NAME ISO_TIME NATURE LAT LON WMO_WIND WMO_PRES WMO_AGENCY TRACK_TYPE DIST2LAND LANDFALL IFLAG USA_AGENCY USA_ATCF_ID USA_LAT USA_LON USA_RECORD USA_STATUS USA_WIND USA_PRES USA_SSHS USA_R34_NE USA_R34_SE USA_R34_SW USA_R34_NW USA_R50_NE USA_R50_SE USA_R50_SW USA_R50_NW USA_R64_NE USA_R64_SE USA_R64_SW USA_R64_NW USA_POCI USA_ROCI USA_RMW USA_EYE TOKYO_LAT TOKYO_LON TOKYO_GRADE TOKYO_WIND TOKYO_PRES TOKYO_R50_DIR TOKYO_R50_LONG TOKYO_R50_SHORT TOKYO_R30_DIR TOKYO_R30_LONG TOKYO_R30_SHORT TOKYO_LAND CMA_LAT CMA_LON CMA_CAT CMA_WIND CMA_PRES HKO_LAT HKO_LON HKO_CAT HKO_WIND HKO_PRES NEWDELHI_LAT NEWDELHI_LON NEWDELHI_GRADE NEWDELHI_WIND NEWDELHI_PRES NEWDELHI_CI NEWDELHI_DP NEWDELHI_POCI REUNION_LAT REUNION_LON REUNION_TYPE REUNION_WIND REUNION_PRES REUNION_TNUM REUNION_CI REUNION_RMW REUNION_R34_NE REUNION_R34_SE REUNION_R34_SW REUNION_R34_NW REUNION_R50_NE REUNION_R50_SE REUNION_R50_SW REUNION_R50_NW REUNION_R64_NE REUNION_R64_SE REUNION_R64_SW REUNION_R64_NW BOM_LAT BOM_LON BOM_TYPE BOM_WIND BOM_PRES BOM_TNUM BOM_CI BOM_RMW BOM_R34_NE BOM_R34_SE BOM_R34_SW BOM_R34_NW BOM_R50_NE BOM_R50_SE BOM_R50_SW BOM_R50_NW BOM_R64_NE BOM_R64_SE BOM_R64_SW BOM_R64_NW BOM_ROCI BOM_POCI BOM_EYE BOM_POS_METHOD BOM_PRES_METHOD NADI_LAT NADI_LON NADI_CAT NADI_WIND NADI_PRES WELLINGTON_LAT WELLINGTON_LON WELLINGTON_WIND WELLINGTON_PRES DS824_LAT DS824_LON DS824_STAGE DS824_WIND DS824_PRES TD9636_LAT TD9636_LON TD9636_STAGE TD9636_WIND TD9636_PRES TD9635_LAT TD9635_LON TD9635_WIND TD9635_PRES TD9635_ROCI NEUMANN_LAT NEUMANN_LON NEUMANN_CLASS NEUMANN_WIND NEUMANN_PRES MLC_LAT MLC_LON MLC_CLASS MLC_WIND MLC_PRES USA_GUST BOM_GUST BOM_GUST_PER REUNION_GUST REUNION_GUST_PER USA_SEAHGT USA_SEARAD_NE USA_SEARAD_SE USA_SEARAD_SW USA_SEARAD_NW STORM_SPEED STORM_DIR
1989103N07154 1989 33 WP MM ANDY 1989-04-13 00:00:00 NR 7.00000 154.000 main 1140 1136 O_________O___ jtwc_wp WP021989 7.00000 154.000 20 -1 7.00000 154.000 1 20 3 286
1989103N07154 1989 33 WP MM ANDY 1989-04-13 03:00:00 NR 7.04378 153.848 main 1133 1133 P_________P___ WP021989 7.06251 153.853 20 -1 7.02504 153.844 1 20 3 284
1989103N07154 1989 33 WP MM ANDY 1989-04-13 06:00:00 NR 7.07503 153.695 main 1141 1138 O_________P___ jtwc_wp WP021989 7.10000 153.700 20 -1 7.05005 153.690 1 20 3 278
1989103N07154 1989 33 WP MM ANDY 1989-04-13 09:00:00 NR 7.08752 153.542 main 1135 1132 P_________P___ WP021989 7.10000 153.542 20 -1 7.07503 153.541 1 20 3 275
1989103N07154 1989 33 WP MM ANDY 1989-04-13 12:00:00 NR 7.10000 153.400 main 1132 1130 O_________O___ jtwc_wp WP021989 7.10000 153.400 20 -1 7.10000 153.400 1 20 3 281
1989103N07154 1989 33 WP MM ANDY 1989-04-13 15:00:00 NR 7.13748 153.284 main 1130 1130 P_________P___ WP021989 7.14999 153.300 22 -1 7.12498 153.268 1 21 2 288
1989103N07154 1989 33 WP MM ANDY 1989-04-13 18:00:00 NR 7.17499 153.171 main 1138 1133 O_________P___ jtwc_wp WP021989 7.20000 153.200 25 -1 7.14997 153.142 1 22 3 281
1989103N07154 1989 33 WP MM ANDY 1989-04-13 21:00:00 NR 7.18750 153.035 main 1133 1131 P_________P___ WP021989 7.20001 153.050 25 -1 7.17498 153.021 1 23 3 275
1989103N07154 1989 33 WP MM ANDY 1989-04-14 00:00:00 NR 7.20000 152.900 main 1131 1129 O_________O___ jtwc_wp WP021989 7.20000 152.900 25 -1 7.20000 152.900 1 25 3 281
1989103N07154 1989 33 WP MM ANDY 1989-04-14 03:00:00 NR 7.23749 152.788 main 1129 1129 P_________P___ WP021989 7.24999 152.800 25 -1 7.22499 152.775 1 25 2 288
1989103N07154 1989 33 WP MM ANDY 1989-04-14 06:00:00 NR 7.27499 152.675 main 1138 1134 O_________P___ jtwc_wp WP021989 7.30000 152.700 25 -1 7.24999 152.650 1 25 3 281
1989103N07154 1989 33 WP MM ANDY 1989-04-14 09:00:00 NR 7.28750 152.537 main 1134 1132 P_________P___ WP021989 7.30001 152.550 25 -1 7.27499 152.525 1 25 3 275
1989103N07154 1989 33 WP MM ANDY 1989-04-14 12:00:00 NR 7.30000 152.400 main 1132 1131 O_________O___ jtwc_wp WP021989 7.30000 152.400 25 -1 7.30000 152.400 1 25 3 281
1989103N07154 1989 33 WP MM ANDY 1989-04-14 15:00:00 NR 7.33748 152.290 main 1131 1131 P_________P___ WP021989 7.34999 152.300 25 -1 7.32498 152.279 1 25 2 289
1989103N07154 1989 33 WP MM ANDY 1989-04-14 18:00:00 NR 7.37499 152.179 main 1140 1139 O_________P___ jtwc_wp WP021989 7.40000 152.200 25 -1 7.34997 152.157 1 25 2 282
1989103N07154 1989 33 WP MM ANDY 1989-04-14 21:00:00 NR 7.39124 152.045 main 1138 1137 P_________P___ WP021989 7.40750 152.057 25 -1 7.37498 152.032 1 25 3 275
1989103N07154 1989 33 WP MM ANDY 1989-04-15 00:00:00 NR 7.40000 151.900 main 1137 1136 O_________O___ jtwc_wp WP021989 7.40000 151.900 25 -1 7.40000 151.900 1 25 3 274
1989103N07154 1989 33 WP MM ANDY 1989-04-15 03:00:00 NR 7.41078 151.754 main 1136 1134 P_________P___ WP021989 7.39250 151.750 25 -1 7.42906 151.757 1 25 3 276
1989103N07154 1989 33 WP MM ANDY 1989-04-15 06:00:00 NR 7.42875 151.604 main 1134 1133 O_________P___ jtwc_wp WP021989 7.40000 151.600 25 -1 7.45749 151.608 1 25 3 280
1989103N07154 1989 33 WP MM ANDY 1989-04-15 09:00:00 NR 7.46609 151.452 main 1144 1143 P_________P___ WP021989 7.45000 151.450 25 -1 7.48218 151.454 1 25 3 283
1989103N07154 1989 33 WP MM ANDY 1989-04-15 12:00:00 NR 7.50000 151.300 main 1143 1143 O_________O___ jtwc_wp WP021989 7.50000 151.300 25 -1 7.50000 151.300 1 25 3 278
1989103N07154 1989 33 WP MM ANDY 1989-04-15 15:00:00 NR 7.50732 151.156 main 1143 1143 P_________P___ WP021989 7.50749 151.150 25 -1 7.50714 151.162 1 25 3 271
1989103N07154 1989 33 WP MM ANDY 1989-04-15 18:00:00 NR 7.50371 151.011 main 1143 1143 O_________P___ jtwc_wp WP021989 7.50000 151.000 25 -1 7.50743 151.022 1 25 3 269
1989103N07154 1989 33 WP MM ANDY 1989-04-15 21:00:00 NR 7.50199 150.865 main 1143 1136 P_________P___ WP021989 7.49999 150.857 25 -1 7.50400 150.872 1 25 3 269
1989103N07154 1989 33 WP MM ANDY 1989-04-16 00:00:00 NR 7.50000 150.700 main 1136 1129 O_________O___ jtwc_wp WP021989 7.50000 150.700 25 -1 7.50000 150.700 1 25 4 269
1989103N07154 1989 33 WP MM ANDY 1989-04-16 03:00:00 NR 7.49594 150.506 main 1129 1122 P_________P___ WP021989 7.49999 150.515 25 -1 7.49189 150.497 1 25 4 269
1989103N07154 1989 33 WP MM ANDY 1989-04-16 06:00:00 NR 7.49251 150.286 main 1122 1116 O_________P___ jtwc_wp WP021989 7.50000 150.300 25 -1 7.48501 150.272 1 25 5 269
1989103N07154 1989 33 WP MM ANDY 1989-04-16 09:00:00 NR 7.48907 150.044 main 1113 1108 P_________P___ WP021989 7.49251 150.050 25 -1 7.48563 150.037 1 25 5 271
1989103N07154 1989 33 WP MM ANDY 1989-04-16 12:00:00 NR 7.50000 149.800 main 1108 1103 O_________O___ jtwc_wp WP021989 7.50000 149.800 25 -1 7.50000 149.800 1 25 4 276
1989103N07154 1989 33 WP MM ANDY 1989-04-16 15:00:00 NR 7.53697 149.594 main 1103 1103 P_________P___ WP021989 7.54247 149.600 27 -1 7.53148 149.587 1 26 5 288
1989103N07154 1989 33 WP MM ANDY 1989-04-16 18:00:00 TS 7.65661 149.321 main 1118 1114 O_O_______P___ jtwc_wp WP021989 7.60000 149.400 30 -1 8.20000 148.800 1 29 1002 7.57738 149.372 1 27 6 291
1989103N07154 1989 33 WP MM ANDY 1989-04-16 21:00:00 TS 7.73382 149.074 main 1114 1112 P_P_______P___ WP021989 7.64998 149.165 30 -1 8.07994 148.755 1 29 1002 7.63459 149.147 1 28 7 282
1989103N07154 1989 33 WP MM ANDY 1989-04-17 00:00:00 TS 7.80000 148.667 1002 tokyo main 1118 1113 OOO_______O___ jtwc_wp WP021989 7.70000 148.900 30 -1 8.00000 147.000 2 1002 0 0 0 8.00000 148.600 1 29 1002 7.70000 148.900 1 30 8 279
1989103N07154 1989 33 WP MM ANDY 1989-04-17 03:00:00 TS 7.85118 148.291 main 1125 1122 PPP_______P___ WP021989 7.74249 148.607 30 -1 8.00000 147.000 2 1002 0 0 7.98509 148.285 1 29 1002 7.75155 148.626 1 31 7 278
1989103N07154 1989 33 WP MM ANDY 1989-04-17 06:00:00 TS 7.89666 147.968 1002 tokyo main 1122 1121 OOO_______P___ jtwc_wp WP021989 7.80000 148.300 30 -1 8.00000 147.000 2 1002 0 0 0 8.00000 148.000 1 29 1002 7.81247 148.330 1 32 5 280
1989103N07154 1989 33 WP MM ANDY 1989-04-17 09:00:00 TS 7.94426 147.759 main 1121 1121 PPP_______P___ WP021989 7.89996 148.008 32 -1 8.00000 147.000 2 1002 0 0 7.98492 148.007 1 29 1001 7.89215 148.019 1 33 4 286
1989103N07154 1989 33 WP MM ANDY 1989-04-17 12:00:00 TS 8.00000 147.600 1002 tokyo main 1132 1131 OOO_______O___ jtwc_wp WP021989 8.00000 147.700 35 0 8.00000 147.000 2 1002 0 0 0 8.00000 148.000 1 29 1000 8.00000 147.700 2 35 4 285
1989103N07154 1989 33 WP MM ANDY 1989-04-17 15:00:00 TS 8.04955 147.355 main 1131 1131 PPP_______P___ WP021989 8.02001 147.350 35 0 7.96250 147.000 2 1001 0 0 8.07758 147.695 1 29 1000 8.13812 147.374 2 36 5 285
1989103N07154 1989 33 WP MM ANDY 1989-04-17 18:00:00 TS 8.14235 147.069 1000 tokyo main 1142 1142 OOOO______P___ jtwc_wp WP021989 8.10000 147.000 35 0 8.00000 147.000 2 1000 0 0 0 8.20000 147.300 1 29 1000 8.00000 146.800 TD 30 1000 8.30501 147.042 2 37 6 299
1989103N07154 1989 33 WP MM ANDY 1989-04-17 21:00:00 TS 8.32373 146.851 main 1165 1165 PPPP______P___ WP021989 8.36998 146.685 37 0 8.18244 147.060 2 999 0 0 8.30498 146.985 1 33 999 8.21002 146.770 TD 32 997 8.49438 146.715 2 38 6 316
1989103N07154 1989 33 WP MM ANDY 1989-04-18 00:00:00 TS 8.58421 146.637 35 998 tokyo main 1199 1199 OOOO______O___ jtwc_wp WP021989 8.70000 146.400 40 0 8.50000 147.000 3 35 998 0 9 125 125 0 8.50000 146.700 2 38 998 8.50000 146.700 TS 35 995 8.70000 146.400 2 40 8 323
1989103N07154 1989 33 WP MM ANDY 1989-04-18 03:00:00 TS 8.93458 146.387 main 1232 1232 PPPP______P___ WP021989 8.96495 146.150 42 0 8.96511 146.653 3 37 997 0 9 125 125 8.89244 146.458 2 38 996 8.90745 146.553 TS 35 995 8.94294 146.123 2 41 9 322
1989103N07154 1989 33 WP MM ANDY 1989-04-18 06:00:00 TS 9.27894 146.092 40 996 tokyo main 1278 1278 OOOO______P___ jtwc_wp WP021989 9.20000 145.900 45 0 9.40000 146.200 3 40 996 0 9 125 125 0 9.30000 146.200 2 38 995 9.30000 146.300 TS 35 995 9.19473 145.858 2 42 8 314
1989103N07154 1989 33 WP MM ANDY 1989-04-18 09:00:00 TS 9.51830 145.776 main 1302 1302 PPPP______P___ WP021989 9.42995 145.623 45 0 9.61736 145.865 3 40 995 0 9 125 125 9.55998 145.873 2 38 995 9.56003 145.930 TS 35 995 9.42417 145.589 2 43 8 300
1989103N07154 1989 33 WP MM ANDY 1989-04-18 12:00:00 TS 9.66000 145.420 40 994 tokyo main 1328 1328 OOOO______O___ jtwc_wp WP021989 9.60000 145.300 45 0 9.70000 145.500 3 40 994 0 9 125 125 0 9.70000 145.500 2 38 995 9.70000 145.500 TS 35 995 9.60000 145.300 2 45 8 284
1989103N07154 1989 33 WP MM ANDY 1989-04-18 15:00:00 TS 9.70675 145.005 main 1334 1334 PPPP______P___ WP021989 9.68005 144.900 47 0 9.72260 145.000 3 42 993 0 9 137 137 9.72250 145.100 2 38 995 9.73000 145.085 TS 37 992 9.67862 144.939 2 47 8 273
1989103N07154 1989 33 WP MM ANDY 1989-04-18 18:00:00 TS 9.70055 144.592 45 992 tokyo main 1340 1340 OOOO______P___ jtwc_wp WP021989 9.70000 144.500 50 0 9.70000 144.500 3 45 992 0 9 150 150 0 9.70000 144.700 2 38 995 9.70000 144.700 TS 40 990 9.70277 144.562 2 50 8 270
1989103N07154 1989 33 WP MM ANDY 1989-04-18 21:00:00 TS 9.71006 144.238 main 1348 1348 PPPP______P___ WP021989 9.70746 144.170 52 0 9.69244 144.105 3 45 991 0 9 150 150 9.74996 144.335 2 38 992 9.69995 144.378 TS 45 987 9.70051 144.204 2 52 6 272
1989103N07154 1989 33 WP MM ANDY 1989-04-19 00:00:00 TS 9.72000 143.940 45 990 tokyo main 1355 1355 OOOO______O___ jtwc_wp WP021989 9.70000 143.900 55 0 9.70000 143.800 3 45 990 0 9 150 150 0 9.80000 144.000 2 38 990 9.70000 144.100 STS 50 985 9.70000 143.900 2 55 6 272
1989103N07154 1989 33 WP MM ANDY 1989-04-19 03:00:00 TS 9.73077 143.676 main 1360 1360 PPPP______P___ WP021989 9.68498 143.670 57 0 9.74997 143.555 3 47 987 0 9 162 162 9.80001 143.662 2 38 990 9.69248 143.835 STS 50 985 9.72640 143.660 2 58 5 274
1989103N07154 1989 33 WP MM ANDY 1989-04-19 06:00:00 TS 9.75246 143.476 50 985 tokyo main 1376 1376 OOOO______P___ jtwc_wp WP021989 9.70000 143.500 60 0 9.80000 143.400 4 50 985 0 9 175 175 0 9.80000 143.400 2 38 990 9.70000 143.600 STS 50 985 9.76231 143.480 2 62 3 279
1989103N07154 1989 33 WP MM ANDY 1989-04-19 09:00:00 TS 9.78390 143.337 main 1382 1382 PPPP______P___ WP021989 9.78499 143.370 65 1 9.78498 143.327 4 52 982 0 9 175 175 9.81246 143.248 2 43 987 9.72000 143.377 STS 52 982 9.81708 143.360 2 66 2 297
1989103N07154 1989 33 WP MM ANDY 1989-04-19 12:00:00 TS 9.86000 143.260 55 980 tokyo main 1393 1393 OOOO______O___ jtwc_wp WP021989 9.90000 143.300 70 1 9.80000 143.300 4 55 980 9 50 50 9 175 175 0 9.90000 143.200 3 48 985 9.80000 143.200 STS 55 980 9.90000 143.300 3 70 3 330
1989103N07154 1989 33 WP MM ANDY 1989-04-19 15:00:00 TS 10.0030 143.211 main 1407 1407 PPPP______P___ WP021989 9.98499 143.270 72 1 9.91250 143.228 4 57 977 9 50 50 9 175 175 10.1350 143.227 3 53 982 9.97749 143.055 STS 57 977 10.0049 143.276 3 73 3 352
1989103N07154 1989 33 WP MM ANDY 1989-04-19 18:00:00 TS 10.1880 143.222 60 975 tokyo main 1428 1428 OOOO______P___ jtwc_wp WP021989 10.1000 143.300 75 1 10.1000 143.200 4 60 975 9 50 50 9 175 175 0 10.4000 143.300 3 58 980 10.2000 143.000 STS 60 975 10.1399 143.310 3 77 4 11
1989103N07154 1989 33 WP MM ANDY 1989-04-19 21:00:00 TS 10.3795 143.285 main 1447 1447 PPPP______P___ WP021989 10.2850 143.378 80 1 10.3425 143.270 4 62 972 9 55 55 9 175 175 10.5650 143.335 3 58 980 10.4000 143.055 STS 65 970 10.3050 143.389 3 81 4 24
1989103N07154 1989 33 WP MM ANDY 1989-04-20 00:00:00 TS 10.5800 143.400 65 970 tokyo main 1466 1466 OOOO______O___ jtwc_wp WP021989 10.5000 143.500 85 2 10.6000 143.400 5 65 970 9 60 60 9 175 175 0 10.7000 143.400 3 58 980 10.6000 143.200 T 70 965 10.5000 143.500 4 85 5 31
1989103N07154 1989 33 WP MM ANDY 1989-04-20 03:00:00 TS 10.7704 143.528 main 1485 1483 PPPP______P___ WP021989 10.6850 143.643 92 2 10.8000 143.528 5 70 965 9 75 75 9 212 212 10.8500 143.520 3 63 975 10.8000 143.378 T 77 960 10.7170 143.573 4 93 5 36
1989103N07154 1989 33 WP MM ANDY 1989-04-20 06:00:00 TS 10.9724 143.696 75 960 tokyo main 1502 1500 OOOO______P___ jtwc_wp WP021989 10.9000 143.800 100 3 11.0000 143.700 5 75 960 9 90 90 9 250 250 0 11.0000 143.700 4 68 970 11.0000 143.600 ST 85 955 10.9621 143.681 4 102 5 39
1989103N07154 1989 33 WP MM ANDY 1989-04-20 09:00:00 TS 11.1932 143.878 main 1519 1519 PPPP______P___ WP021989 11.1924 143.905 110 3 11.2424 143.913 5 80 952 9 90 90 9 250 250 11.1199 143.913 4 72 965 11.1849 143.813 ST 95 950 11.2262 143.848 4 111 6 43
1989103N07154 1989 33 WP MM ANDY 1989-04-20 12:00:00 TS 11.4400 144.140 85 945 tokyo main 1537 1537 OOOO______O___ jtwc_wp WP021989 11.5000 144.100 120 4 11.5000 144.200 5 85 945 9 90 90 9 250 250 0 11.3000 144.200 4 77 960 11.4000 144.100 SuperT 105 945 11.5000 144.100 4 120 8 51
1989103N07154 1989 33 WP MM ANDY 1989-04-20 15:00:00 TS 11.7105 144.522 main 1563 1561 PPPP______P___ WP021989 11.7501 144.505 127 4 11.7425 144.570 5 90 937 9 90 90 9 250 250 11.6275 144.570 4 87 952 11.6850 144.520 SuperT 105 945 11.7475 144.444 4 125 10 56
1989103N07154 1989 33 WP MM ANDY 1989-04-20 18:00:00 TS 12.0010 144.975 95 930 tokyo main 1589 1589 OOOO______P___ jtwc_wp WP021989 12.0000 145.000 135 4 12.0000 145.000 5 95 930 9 90 90 9 250 250 0 12.0000 145.000 5 97 945 12.0000 145.000 SuperT 105 945 12.0050 144.873 4 130 11 57
1989103N07154 1989 33 WP MM ANDY 1989-04-20 21:00:00 TS 12.2849 145.423 main 1618 1617 PPPP______P___ WP021989 12.2774 145.443 137 5 12.2699 145.428 5 97 925 9 95 95 9 250 250 12.2999 145.435 5 97 942 12.2924 145.443 SuperT 105 945 12.2849 145.366 4 135 11 56
1989103N07154 1989 33 WP MM ANDY 1989-04-21 00:00:00 TS 12.6000 145.900 100 920 tokyo main 1648 1648 OOOO______O___ jtwc_wp WP021989 12.6000 145.900 140 5 12.6000 145.900 5 100 920 9 100 100 9 250 250 0 12.6000 145.900 5 97 940 12.6000 145.900 SuperT 105 945 12.6000 145.900 4 140 12 55
1989103N07154 1989 33 WP MM ANDY 1989-04-21 03:00:00 TS 12.9598 146.393 main 1691 1691 PPPP______P___ WP021989 12.9848 146.370 140 5 13.0349 146.420 5 100 920 9 100 100 9 250 250 12.9273 146.370 5 101 935 12.9123 146.363 SuperT 107 942 12.9397 146.440 4 140 13 53
1989103N07154 1989 33 WP MM ANDY 1989-04-21 06:00:00 TS 13.3635 146.943 100 920 tokyo main 1736 1736 OOOO______P___ jtwc_wp WP021989 13.4000 146.900 140 5 13.5000 147.000 5 100 920 9 100 100 9 250 250 0 13.3000 146.900 6 106 930 13.3000 146.900 SuperT 110 940 13.3175 147.013 4 140 14 55
1989103N07154 1989 33 WP MM ANDY 1989-04-21 09:00:00 TS 13.7803 147.576 main 1781 1781 PPPP______P___ WP021989 13.7701 147.535 140 5 13.8775 147.643 5 100 920 9 100 100 9 250 250 13.7049 147.520 6 106 930 13.8126 147.577 SuperT 107 942 13.7365 147.605 4 140 16 55
1989103N07154 1989 33 WP MM ANDY 1989-04-21 12:00:00 TS 14.2600 148.240 100 920 tokyo main 1839 1839 OOOO______O___ jtwc_wp WP021989 14.2000 148.200 140 5 14.3000 148.300 5 100 920 9 100 100 9 250 250 0 14.2000 148.200 6 106 930 14.4000 148.300 SuperT 105 945 14.2000 148.200 4 140 17 50
1989103N07154 1989 33 WP MM ANDY 1989-04-21 15:00:00 TS 14.8431 148.882 main 1900 1900 PPPP______P___ WP021989 14.7848 148.815 137 5 14.8774 148.915 5 100 920 9 100 100 9 250 250 14.8351 148.922 6 106 930 15.0074 148.973 SuperT 100 947 14.7107 148.787 4 137 17 45
1989103N07154 1989 33 WP MM ANDY 1989-04-21 18:00:00 TS 15.4525 149.495 100 920 tokyo main 1985 1985 OOOO______P___ jtwc_wp WP021989 15.4000 149.400 135 4 15.5000 149.500 5 100 920 9 100 100 9 250 250 0 15.5000 149.600 6 106 930 15.6000 149.600 ST 95 950 15.2623 149.373 4 135 16 44
1989103N07154 1989 33 WP MM ANDY 1989-04-21 21:00:00 TS 15.9999 150.056 main 2049 2049 PPPP______P___ WP021989 15.9148 149.965 132 4 16.0423 150.058 5 97 922 9 100 100 9 250 250 16.1022 150.138 6 101 937 16.1073 150.173 ST 87 955 15.8327 149.947 4 132 15 44
1989103N07154 1989 33 WP MM ANDY 1989-04-22 00:00:00 TS 16.5200 150.580 95 925 tokyo main 2113 2113 OOOO______O___ jtwc_wp WP021989 16.4000 150.500 130 4 16.6000 150.600 5 95 925 9 100 100 9 250 250 0 16.6000 150.600 5 97 945 16.6000 150.700 T 80 960 16.4000 150.500 4 130 14 44
1989103N07154 1989 33 WP MM ANDY 1989-04-22 03:00:00 TS 17.0231 151.089 main 2177 2177 PPPP______P___ WP021989 16.8923 151.008 125 4 17.2499 151.158 5 92 927 9 100 80 9 250 200 16.8996 151.028 5 92 947 17.1499 151.223 T 77 962 16.9235 151.031 4 125 14 44
1989103N07154 1989 33 WP MM ANDY 1989-04-22 06:00:00 TS 17.5284 151.588 90 930 tokyo main 2243 2234 OOOO______P___ jtwc_wp WP021989 17.4000 151.500 120 4 17.9000 151.700 5 90 930 2 100 60 2 250 150 0 17.2000 151.500 5 87 950 17.7000 151.700 T 75 965 17.4419 151.539 4 120 14 43
1989103N07154 1989 33 WP MM ANDY 1989-04-22 09:00:00 TS 18.0583 152.096 main 2229 2208 PPPP______P___ WP021989 17.9424 152.008 115 4 18.4798 152.208 5 87 935 2 95 55 2 250 150 17.7053 152.142 5 82 952 18.1997 152.093 T 72 967 17.9643 152.028 4 115 14 42
1989103N07154 1989 33 WP MM ANDY 1989-04-22 12:00:00 TS 18.6000 152.600 85 940 tokyo main 2208 2182 OOOO______O___ jtwc_wp WP021989 18.5000 152.500 110 3 19.0000 152.700 5 85 940 2 90 50 2 250 150 0 18.3000 152.800 4 77 955 18.7000 152.500 T 70 970 18.5000 152.500 4 110 15 41
1989103N07154 1989 33 WP MM ANDY 1989-04-22 15:00:00 TS 19.1484 153.108 main 2188 2160 PPPP______P___ WP021989 19.0423 152.958 105 3 19.4799 153.208 5 82 945 2 90 50 2 250 150 18.8998 153.338 4 77 957 19.2352 153.050 T 65 972 19.0847 152.985 4 103 14 40
1989103N07154 1989 33 WP MM ANDY 1989-04-22 18:00:00 TS 19.6960 153.590 80 950 tokyo main 2160 2138 OOOO______P___ jtwc_wp WP021989 19.6000 153.400 100 3 19.9000 153.700 5 80 950 2 90 50 2 250 150 0 19.5000 153.800 4 77 960 19.8000 153.600 STS 60 975 19.6798 153.452 4 97 14 39
1989103N07154 1989 33 WP MM ANDY 1989-04-22 21:00:00 TS 20.2454 154.038 main 2138 2118 PPPP______P___ WP021989 20.2224 153.857 92 2 20.2500 154.180 5 75 955 2 85 45 2 250 150 20.0723 154.223 4 72 965 20.4223 154.038 STS 55 977 20.2599 153.894 4 91 13 37
1989103N07154 1989 33 WP MM ANDY 1989-04-23 00:00:00 TS 20.7600 154.440 70 960 tokyo main 2109 2099 OOOO______O___ jtwc_wp WP021989 20.8000 154.300 85 2 20.6000 154.600 5 70 960 2 80 40 2 250 150 0 20.6000 154.600 4 68 970 21.0000 154.400 STS 50 980 20.8000 154.300 4 85 12 37
1989103N07154 1989 33 WP MM ANDY 1989-04-23 03:00:00 TS 21.2008 154.807 main 2099 2084 PPPP______P___ WP021989 21.2225 154.730 75 1 21.0273 154.923 5 67 965 2 80 40 2 250 150 21.0575 154.988 4 63 975 21.4374 154.723 STS 50 980 21.2595 154.671 4 75 11 37
1989103N07154 1989 33 WP MM ANDY 1989-04-23 06:00:00 TS 21.6159 155.121 65 970 tokyo main 2084 2064 OOOO______P___ jtwc_wp WP021989 21.6000 155.100 65 1 21.5000 155.200 5 65 970 2 80 40 2 250 150 0 21.5000 155.300 3 58 980 21.8000 155.000 STS 50 980 21.6793 155.004 4 65 10 32
1989103N07154 1989 33 WP MM ANDY 1989-04-23 09:00:00 TS 22.0553 155.383 main 2062 2043 PPPP______P___ WP021989 22.0423 155.373 55 0 21.9999 155.500 5 62 972 2 102 50 2 250 150 21.9998 155.473 3 58 980 22.1499 155.258 STS 47 982 22.0846 155.311 4 55 10 28
1989103N07154 1989 33 WP MM ANDY 1989-04-23 12:00:00 TS 22.5000 155.626 60 975 tokyo main 2043 2024 OOOO______O___ jtwc_wp WP021989 22.5000 155.600 45 0 22.5000 155.800 4 60 975 1 125 60 1 250 150 0 22.5000 155.600 3 58 980 22.5000 155.500 TS 45 985 22.5000 155.600 2 45 10 27
1989103N07154 1989 33 WP MM ANDY 1989-04-23 15:00:00 TS 22.9477 155.884 main 2031 2005 PPPP______P___ WP021989 22.9424 155.843 40 0 22.9575 156.115 4 55 980 1 1 225 150 22.9649 155.770 3 53 982 22.8876 155.747 TS 40 987 22.9561 155.874 2 41 10 28
1989103N07154 1989 33 WP MM ANDY 1989-04-23 18:00:00 TS 23.4004 156.150 50 985 tokyo main 2005 1994 OOOO______P___ jtwc_wp WP021989 23.4000 156.100 35 0 23.4000 156.400 4 50 985 0 1 200 150 0 23.4000 156.000 3 48 985 23.3000 156.000 TS 35 990 23.4268 156.137 2 37 10 29
1989103N07154 1989 33 WP MM ANDY 1989-04-23 21:00:00 TS 23.8629 156.428 main 1986 1976 PPP_______P___ WP021989 23.8925 156.393 32 -1 23.8497 156.578 4 47 987 0 1 200 150 23.8001 156.335 3 43 987 TS 23.9092 156.406 2 33 11 30
1989103N07154 1989 33 WP MM ANDY 1989-04-24 00:00:00 TS 24.3250 156.725 45 990 tokyo main 1976 1960 OOO_______O___ jtwc_wp WP021989 24.4000 156.700 30 -1 24.3000 156.800 3 45 990 0 1 200 150 0 24.2000 156.700 2 38 990 24.4000 156.700 1 30 11 31
1989103N07154 1989 33 WP MM ANDY 1989-04-24 03:00:00 TS 24.7999 157.049 main 1960 1953 PPP_______P___ WP021989 24.8998 156.978 30 -1 24.7502 157.220 3 45 990 0 1 200 150 24.6570 156.963 2 38 990 24.8926 157.035 1 30 11 34
1989103N07154 1989 33 WP MM ANDY 1989-04-24 06:00:00 TS 25.2730 157.425 45 990 tokyo main 1954 1954 OOO_______P___ jtwc_wp WP021989 25.4000 157.300 30 -1 25.2000 157.700 3 45 990 0 1 200 150 0 25.1000 157.300 2 38 990 25.3922 157.399 1 30 12 39
1989103N07154 1989 33 WP MM ANDY 1989-04-24 09:00:00 TS 25.7146 157.874 main 1964 1957 PPP_______P___ WP021989 25.9000 157.728 30 -1 25.6423 158.101 3 42 991 0 1 200 150 25.4205 157.878 2 38 990 25.8956 157.788 1 30 12 43
1989103N07154 1989 33 WP MM ANDY 1989-04-24 12:00:00 TS 26.1750 158.350 40 992 tokyo main 1969 1963 OOO_______O___ jtwc_wp WP021989 26.4000 158.200 30 -1 26.1000 158.500 3 40 992 0 1 200 150 0 25.8000 158.500 2 38 990 26.4000 158.200 1 30 13 40
1989103N07154 1989 33 WP MM ANDY 1989-04-24 15:00:00 TS 26.7018 158.794 main 1969 1962 PPP_______P___ WP021989 26.8999 158.650 30 -1 26.5774 158.936 3 40 993 0 1 175 125 26.4270 158.958 2 38 991 26.9028 158.631 1 30 13 38
1989103N07154 1989 33 WP MM ANDY 1989-04-24 18:00:00 TS 27.2294 159.266 40 994 tokyo main 1979 1972 OOO_______P___ jtwc_wp WP021989 27.4000 159.100 30 -1 27.1000 159.400 3 40 994 0 1 150 100 0 27.1000 159.400 2 38 992 27.4037 159.077 1 30 14 41
1989103N07154 1989 33 WP MM ANDY 1989-04-24 21:00:00 TS 27.7239 159.803 main 1990 1985 PPP_______P___ WP021989 27.9003 159.549 30 -1 27.6697 159.878 3 37 995 0 1 150 100 27.6004 159.988 2 33 994 27.9028 159.534 1 30 14 43
1989103N07154 1989 33 WP MM ANDY 1989-04-25 00:00:00 TS 28.2556 160.344 35 996 tokyo main 1999 1999 OOO_______O___ jtwc_wp WP021989 28.4000 160.000 30 -1 28.3000 160.400 3 35 996 0 1 150 100 0 28.1000 160.500 1 29 996 28.4000 160.000 1 30 15 40
1989103N07154 1989 33 WP MM ANDY 1989-04-25 03:00:00 TS 28.8838 160.901 main 2019 2017 _PP___________ WP021989 -1 28.9696 160.964 3 998 0 1 28.7122 160.775 1 26 998 1 17 35
1989103N07154 1989 33 WP MM ANDY 1989-04-25 06:00:00 TS 29.6400 161.460 1000 tokyo main 2036 2013 _OO___________ -1 29.7000 161.600 2 1000 0 0 0 29.4000 160.900 1 23 1000 1 20 38
1989103N07154 1989 33 WP MM ANDY 1989-04-25 09:00:00 TS 30.4394 162.300 main 2013 1970 _P____________ -1 30.4394 162.300 2 1002 0 0 1 1 22 40
1989103N07154 1989 33 WP MM ANDY 1989-04-25 12:00:00 TS 31.3000 163.100 1004 tokyo main 1966 1920 _O____________ -1 31.3000 163.100 2 1004 0 0 0 24 37
1989103N07154 1989 33 WP MM ANDY 1989-04-25 15:00:00 TS 32.3467 164.011 main 1920 1869 _P____________ -1 32.3467 164.011 2 1005 0 0 27 36
1989103N07154 1989 33 WP MM ANDY 1989-04-25 18:00:00 TS 33.5000 165.000 1006 tokyo main 1866 _O____________ -1 33.5000 165.000 2 1006 0 0 0 28 36

デジタル台風データ・検索

IBTrACS Databaseについて

本データベースは、米国NOAAが公開する1842年以降の世界の熱帯低気圧のベストトラックデータアーカイブInternational Best Track Archive for Climate Stewardship (IBTrACS)を、ウェブで閲覧しやすい形式に変換したものです。

最終更新日:2021-10-21